Greenville, Missouri
Current Conditions -  °F | °C
As of 9:53 AM on Thursday 29 Jan 2015 (Local Time) from KPOF Reporting Station
Clear Clear  
Wind Chill: 53°   Ceiling: Unl
Heat Index: 53°   Visibility: 10mi
Dew Point: 37°   Wind: 13mph
Humidity: 55%   Direction: 300°WNW
Pressure: 30.08"   Gusts: 22mph
Location:  37.13°N, 90.45°W
Report Text: KPOF 291553Z AUTO 30011G19KT 10SM CLR 12/03 A3008 RMK AO2 SLP189 T01170028
Loading
Personal Weather Stations






























Interactive Weather Map New forecast layout! Learn more

10-Day Weather Forecast

Advertisements
Track Severe Weather on mobile